sensor_id;sensor_type;location;lat;lon;timestamp;temperature;humidity
47384;DHT22;33129;52.232;5.192;2022-10-04T00:06:20;16.40;1.00
47384;DHT22;33129;52.232;5.192;2022-10-04T00:08:55;16.70;1.00
47384;DHT22;33129;52.232;5.192;2022-10-04T00:16:40;16.30;1.00
47384;DHT22;33129;52.232;5.192;2022-10-04T00:24:26;16.40;1.00
47384;DHT22;33129;52.232;5.192;2022-10-04T00:27:20;16.40;1.00
47384;DHT22;33129;52.232;5.192;2022-10-04T00:32:45;16.50;1.00
47384;DHT22;33129;52.232;5.192;2022-10-04T00:35:46;16.10;1.00
47384;DHT22;33129;52.232;5.192;2022-10-04T00:38:15;16.20;1.00
47384;DHT22;33129;52.232;5.192;2022-10-04T00:41:02;16.20;1.00
47384;DHT22;33129;52.232;5.192;2022-10-04T00:43:42;16.30;1.00
47384;DHT22;33129;52.232;5.192;2022-10-04T00:46:22;16.30;1.00
47384;DHT22;33129;52.232;5.192;2022-10-04T00:48:57;16.40;1.00
47384;DHT22;33129;52.232;5.192;2022-10-04T00:51:31;16.30;1.00
47384;DHT22;33129;52.232;5.192;2022-10-04T00:54:11;16.50;1.00
47384;DHT22;33129;52.232;5.192;2022-10-04T00:56:55;16.30;1.00
47384;DHT22;33129;52.232;5.192;2022-10-04T00:59:43;16.30;1.00
47384;DHT22;33129;52.232;5.192;2022-10-04T01:02:27;16.50;1.00
47384;DHT22;33129;52.232;5.192;2022-10-04T01:10:49;16.40;1.00
47384;DHT22;33129;52.232;5.192;2022-10-04T01:15:55;16.30;1.00
47384;DHT22;33129;52.232;5.192;2022-10-04T01:18:31;16.40;1.00
47384;DHT22;33129;52.232;5.192;2022-10-04T01:21:08;16.40;1.00
47384;DHT22;33129;52.232;5.192;2022-10-04T01:28:55;15.80;1.00
47384;DHT22;33129;52.232;5.192;2022-10-04T01:31:27;16.00;1.00
47384;DHT22;33129;52.232;5.192;2022-10-04T01:33:54;15.80;1.00
47384;DHT22;33129;52.232;5.192;2022-10-04T01:36:20;15.90;1.00
47384;DHT22;33129;52.232;5.192;2022-10-04T01:38:47;15.90;1.00
47384;DHT22;33129;52.232;5.192;2022-10-04T01:41:20;16.10;1.00
47384;DHT22;33129;52.232;5.192;2022-10-04T01:43:53;15.90;1.00
47384;DHT22;33129;52.232;5.192;2022-10-04T01:46:28;16.00;1.00
47384;DHT22;33129;52.232;5.192;2022-10-04T01:49:01;16.00;1.00
47384;DHT22;33129;52.232;5.192;2022-10-04T01:51:52;15.70;1.00
47384;DHT22;33129;52.232;5.192;2022-10-04T01:54:32;16.00;1.00
47384;DHT22;33129;52.232;5.192;2022-10-04T01:57:22;15.60;1.00
47384;DHT22;33129;52.232;5.192;2022-10-04T01:59:59;15.90;1.00
47384;DHT22;33129;52.232;5.192;2022-10-04T02:05:34;15.80;1.00
47384;DHT22;33129;52.232;5.192;2022-10-04T02:08:08;16.00;1.00
47384;DHT22;33129;52.232;5.192;2022-10-04T02:10:36;15.60;1.00
47384;DHT22;33129;52.232;5.192;2022-10-04T02:13:08;15.80;1.00
47384;DHT22;33129;52.232;5.192;2022-10-04T02:15:36;15.90;1.00
47384;DHT22;33129;52.232;5.192;2022-10-04T02:18:13;15.30;1.00
47384;DHT22;33129;52.232;5.192;2022-10-04T02:20:41;15.90;1.00
47384;DHT22;33129;52.232;5.192;2022-10-04T02:23:09;15.30;1.00
47384;DHT22;33129;52.232;5.192;2022-10-04T02:25:36;15.40;1.00
47384;DHT22;33129;52.232;5.192;2022-10-04T02:28:03;15.70;1.00
47384;DHT22;33129;52.232;5.192;2022-10-04T02:30:37;15.60;1.00
47384;DHT22;33129;52.232;5.192;2022-10-04T02:33:06;15.90;1.00
47384;DHT22;33129;52.232;5.192;2022-10-04T02:35:46;15.70;1.00
47384;DHT22;33129;52.232;5.192;2022-10-04T02:38:14;15.50;1.00
47384;DHT22;33129;52.232;5.192;2022-10-04T02:41:00;15.50;1.00
47384;DHT22;33129;52.232;5.192;2022-10-04T02:43:53;16.00;1.00
47384;DHT22;33129;52.232;5.192;2022-10-04T02:46:39;15.60;1.00
47384;DHT22;33129;52.232;5.192;2022-10-04T02:49:27;15.30;1.00
47384;DHT22;33129;52.232;5.192;2022-10-04T02:52:29;15.50;1.00
47384;DHT22;33129;52.232;5.192;2022-10-04T02:55:05;15.50;1.00
47384;DHT22;33129;52.232;5.192;2022-10-04T02:57:53;15.20;1.00
47384;DHT22;33129;52.232;5.192;2022-10-04T03:00:22;14.80;1.00
47384;DHT22;33129;52.232;5.192;2022-10-04T03:05:38;15.30;1.00
47384;DHT22;33129;52.232;5.192;2022-10-04T03:08:05;15.20;1.00
47384;DHT22;33129;52.232;5.192;2022-10-04T03:10:31;15.30;1.00
47384;DHT22;33129;52.232;5.192;2022-10-04T03:12:57;15.10;1.00
47384;DHT22;33129;52.232;5.192;2022-10-04T03:15:23;15.40;1.00
47384;DHT22;33129;52.232;5.192;2022-10-04T03:17:49;14.80;1.00
47384;DHT22;33129;52.232;5.192;2022-10-04T03:20:16;15.10;1.00
47384;DHT22;33129;52.232;5.192;2022-10-04T03:22:49;15.30;1.00
47384;DHT22;33129;52.232;5.192;2022-10-04T03:25:27;15.30;1.00
47384;DHT22;33129;52.232;5.192;2022-10-04T03:27:58;15.20;1.00
47384;DHT22;33129;52.232;5.192;2022-10-04T03:30:26;15.00;1.00
47384;DHT22;33129;52.232;5.192;2022-10-04T03:32:52;15.10;1.00
47384;DHT22;33129;52.232;5.192;2022-10-04T03:35:32;15.10;1.00
47384;DHT22;33129;52.232;5.192;2022-10-04T03:38:00;15.10;1.00
47384;DHT22;33129;52.232;5.192;2022-10-04T03:40:29;15.10;1.00
47384;DHT22;33129;52.232;5.192;2022-10-04T03:42:58;15.20;1.00
47384;DHT22;33129;52.232;5.192;2022-10-04T03:45:26;15.20;1.00
47384;DHT22;33129;52.232;5.192;2022-10-04T03:47:57;14.80;1.00
47384;DHT22;33129;52.232;5.192;2022-10-04T03:50:44;14.90;1.00
47384;DHT22;33129;52.232;5.192;2022-10-04T03:53:18;15.10;1.00
47384;DHT22;33129;52.232;5.192;2022-10-04T03:55:52;14.80;1.00
47384;DHT22;33129;52.232;5.192;2022-10-04T03:58:18;15.20;1.00
47384;DHT22;33129;52.232;5.192;2022-10-04T04:03:44;14.90;1.00
47384;DHT22;33129;52.232;5.192;2022-10-04T04:06:15;14.90;1.00
47384;DHT22;33129;52.232;5.192;2022-10-04T04:08:44;15.00;1.00
47384;DHT22;33129;52.232;5.192;2022-10-04T04:11:21;14.80;1.00
47384;DHT22;33129;52.232;5.192;2022-10-04T04:13:58;14.50;1.00
47384;DHT22;33129;52.232;5.192;2022-10-04T04:16:29;14.70;1.00
47384;DHT22;33129;52.232;5.192;2022-10-04T04:18:59;14.90;1.00
47384;DHT22;33129;52.232;5.192;2022-10-04T04:21:27;14.30;1.00
47384;DHT22;33129;52.232;5.192;2022-10-04T04:24:05;14.30;1.00
47384;DHT22;33129;52.232;5.192;2022-10-04T04:27:00;14.20;1.00
47384;DHT22;33129;52.232;5.192;2022-10-04T04:29:35;13.90;1.00
47384;DHT22;33129;52.232;5.192;2022-10-04T04:32:25;14.40;1.00
47384;DHT22;33129;52.232;5.192;2022-10-04T04:34:59;14.60;1.00
47384;DHT22;33129;52.232;5.192;2022-10-04T04:37:33;14.30;1.00
47384;DHT22;33129;52.232;5.192;2022-10-04T04:40:22;14.40;1.00
47384;DHT22;33129;52.232;5.192;2022-10-04T04:42:50;14.80;1.00
47384;DHT22;33129;52.232;5.192;2022-10-04T04:45:19;14.60;1.00
47384;DHT22;33129;52.232;5.192;2022-10-04T04:47:57;14.60;1.00
47384;DHT22;33129;52.232;5.192;2022-10-04T04:50:25;14.60;1.00
47384;DHT22;33129;52.232;5.192;2022-10-04T04:53:13;14.40;1.00
47384;DHT22;33129;52.232;5.192;2022-10-04T04:55:46;14.50;1.00
47384;DHT22;33129;52.232;5.192;2022-10-04T04:58:20;14.30;1.00
47384;DHT22;33129;52.232;5.192;2022-10-04T05:00:55;14.40;1.00
47384;DHT22;33129;52.232;5.192;2022-10-04T05:03:24;14.50;1.00
47384;DHT22;33129;52.232;5.192;2022-10-04T05:05:51;14.30;1.00
47384;DHT22;33129;52.232;5.192;2022-10-04T05:08:27;14.20;1.00
47384;DHT22;33129;52.232;5.192;2022-10-04T05:19:15;14.30;1.00
47384;DHT22;33129;52.232;5.192;2022-10-04T05:21:51;14.20;1.00
47384;DHT22;33129;52.232;5.192;2022-10-04T05:27:03;14.30;1.00
47384;DHT22;33129;52.232;5.192;2022-10-04T05:29:33;13.90;1.00
47384;DHT22;33129;52.232;5.192;2022-10-04T05:32:25;14.30;1.00
47384;DHT22;33129;52.232;5.192;2022-10-04T05:34:58;14.30;1.00
47384;DHT22;33129;52.232;5.192;2022-10-04T05:40:12;14.20;1.00
47384;DHT22;33129;52.232;5.192;2022-10-04T05:42:48;14.40;1.00
47384;DHT22;33129;52.232;5.192;2022-10-04T05:45:19;14.60;1.00
47384;DHT22;33129;52.232;5.192;2022-10-04T05:47:56;14.30;1.00
47384;DHT22;33129;52.232;5.192;2022-10-04T05:50:34;14.50;1.00
47384;DHT22;33129;52.232;5.192;2022-10-04T06:02:43;14.40;1.00
47384;DHT22;33129;52.232;5.192;2022-10-04T06:11:04;14.00;1.00
47384;DHT22;33129;52.232;5.192;2022-10-04T06:20:05;13.80;1.00
47384;DHT22;33129;52.232;5.192;2022-10-04T06:22:47;13.90;1.00
47384;DHT22;33129;52.232;5.192;2022-10-04T06:25:37;13.90;1.00
47384;DHT22;33129;52.232;5.192;2022-10-04T06:28:22;13.70;1.00
47384;DHT22;33129;52.232;5.192;2022-10-04T06:33:46;13.70;1.00
47384;DHT22;33129;52.232;5.192;2022-10-04T06:42:52;14.20;1.00
47384;DHT22;33129;52.232;5.192;2022-10-04T06:48:22;13.90;1.00
47384;DHT22;33129;52.232;5.192;2022-10-04T07:03:07;14.10;1.00
47384;DHT22;33129;52.232;5.192;2022-10-04T07:05:51;14.20;1.00
47384;DHT22;33129;52.232;5.192;2022-10-04T07:11:17;14.20;1.00
47384;DHT22;33129;52.232;5.192;2022-10-04T07:17:08;14.20;1.00
47384;DHT22;33129;52.232;5.192;2022-10-04T07:19:45;14.00;1.00
47384;DHT22;33129;52.232;5.192;2022-10-04T07:22:25;14.10;1.00
47384;DHT22;33129;52.232;5.192;2022-10-04T07:25:10;14.30;1.00
47384;DHT22;33129;52.232;5.192;2022-10-04T07:27:55;14.20;1.00
47384;DHT22;33129;52.232;5.192;2022-10-04T07:30:47;14.30;1.00
47384;DHT22;33129;52.232;5.192;2022-10-04T07:33:21;14.10;1.00
47384;DHT22;33129;52.232;5.192;2022-10-04T07:35:54;14.60;1.00
47384;DHT22;33129;52.232;5.192;2022-10-04T07:38:28;15.00;1.00
47384;DHT22;33129;52.232;5.192;2022-10-04T07:41:20;14.90;1.00
47384;DHT22;33129;52.232;5.192;2022-10-04T07:44:18;15.20;1.00
47384;DHT22;33129;52.232;5.192;2022-10-04T07:47:23;15.10;1.00
47384;DHT22;33129;52.232;5.192;2022-10-04T07:49:51;15.10;1.00
47384;DHT22;33129;52.232;5.192;2022-10-04T07:56:01;15.80;1.00
47384;DHT22;33129;52.232;5.192;2022-10-04T08:01:29;16.30;1.00
47384;DHT22;33129;52.232;5.192;2022-10-04T08:07:25;17.10;1.00
47384;DHT22;33129;52.232;5.192;2022-10-04T08:10:08;19.20;1.00
47384;DHT22;33129;52.232;5.192;2022-10-04T08:12:51;20.20;99.90
47384;DHT22;33129;52.232;5.192;2022-10-04T08:15:38;20.40;99.90
47384;DHT22;33129;52.232;5.192;2022-10-04T08:18:20;20.30;99.90
47384;DHT22;33129;52.232;5.192;2022-10-04T08:20:57;20.20;99.90
47384;DHT22;33129;52.232;5.192;2022-10-04T08:32:31;20.30;99.90
47384;DHT22;33129;52.232;5.192;2022-10-04T08:38:25;20.40;99.90
47384;DHT22;33129;52.232;5.192;2022-10-04T08:41:18;20.30;99.90
47384;DHT22;33129;52.232;5.192;2022-10-04T08:47:38;22.00;99.90
47384;DHT22;33129;52.232;5.192;2022-10-04T08:50:47;21.80;99.90
47384;DHT22;33129;52.232;5.192;2022-10-04T08:53:39;21.60;99.90
47384;DHT22;33129;52.232;5.192;2022-10-04T08:59:13;21.90;99.90
47384;DHT22;33129;52.232;5.192;2022-10-04T09:05:12;21.80;99.90
47384;DHT22;33129;52.232;5.192;2022-10-04T09:18:06;22.60;99.90
47384;DHT22;33129;52.232;5.192;2022-10-04T09:26:54;21.90;99.90
47384;DHT22;33129;52.232;5.192;2022-10-04T09:44:23;22.50;99.90
47384;DHT22;33129;52.232;5.192;2022-10-04T09:53:18;21.10;99.90
47384;DHT22;33129;52.232;5.192;2022-10-04T09:56:17;21.30;99.90
47384;DHT22;33129;52.232;5.192;2022-10-04T09:59:12;21.40;99.90
47384;DHT22;33129;52.232;5.192;2022-10-04T10:04:38;20.90;99.90
47384;DHT22;33129;52.232;5.192;2022-10-04T10:13:41;21.30;99.90
47384;DHT22;33129;52.232;5.192;2022-10-04T10:37:08;22.80;99.90
47384;DHT22;33129;52.232;5.192;2022-10-04T10:48:56;24.40;99.90
47384;DHT22;33129;52.232;5.192;2022-10-04T10:51:49;23.30;99.90
47384;DHT22;33129;52.232;5.192;2022-10-04T11:19:26;22.90;99.90
47384;DHT22;33129;52.232;5.192;2022-10-04T11:28:14;22.50;99.90
47384;DHT22;33129;52.232;5.192;2022-10-04T11:37:00;22.10;99.90
47384;DHT22;33129;52.232;5.192;2022-10-04T11:39:47;22.30;99.90
47384;DHT22;33129;52.232;5.192;2022-10-04T11:57:53;22.00;99.90
47384;DHT22;33129;52.232;5.192;2022-10-04T12:01:17;22.00;99.90
47384;DHT22;33129;52.232;5.192;2022-10-04T12:07:18;21.80;99.90
47384;DHT22;33129;52.232;5.192;2022-10-04T12:22:13;21.50;99.90
47384;DHT22;33129;52.232;5.192;2022-10-04T12:31:18;22.50;99.90
47384;DHT22;33129;52.232;5.192;2022-10-04T12:36:49;22.80;99.90
47384;DHT22;33129;52.232;5.192;2022-10-04T12:51:51;22.90;99.90
47384;DHT22;33129;52.232;5.192;2022-10-04T12:54:41;23.30;99.90
47384;DHT22;33129;52.232;5.192;2022-10-04T13:00:20;23.20;99.90
47384;DHT22;33129;52.232;5.192;2022-10-04T13:25:49;22.40;99.90
47384;DHT22;33129;52.232;5.192;2022-10-04T13:31:02;22.70;99.90
47384;DHT22;33129;52.232;5.192;2022-10-04T13:33:54;22.60;99.90
47384;DHT22;33129;52.232;5.192;2022-10-04T13:47:42;22.20;99.90
47384;DHT22;33129;52.232;5.192;2022-10-04T13:50:40;22.00;99.90
47384;DHT22;33129;52.232;5.192;2022-10-04T14:29:38;21.80;99.90
47384;DHT22;33129;52.232;5.192;2022-10-04T14:32:37;21.90;99.90
47384;DHT22;33129;52.232;5.192;2022-10-04T14:35:34;22.00;99.90
47384;DHT22;33129;52.232;5.192;2022-10-04T14:44:05;21.80;99.90
47384;DHT22;33129;52.232;5.192;2022-10-04T14:55:08;21.30;99.90
47384;DHT22;33129;52.232;5.192;2022-10-04T15:02:57;21.60;99.90
47384;DHT22;33129;52.232;5.192;2022-10-04T15:12:37;21.30;99.90
47384;DHT22;33129;52.232;5.192;2022-10-04T15:20:45;21.30;99.90
47384;DHT22;33129;52.232;5.192;2022-10-04T15:23:34;21.40;99.90
47384;DHT22;33129;52.232;5.192;2022-10-04T15:32:32;21.40;99.90
47384;DHT22;33129;52.232;5.192;2022-10-04T15:35:33;21.20;99.90
47384;DHT22;33129;52.232;5.192;2022-10-04T15:47:08;21.00;99.90
47384;DHT22;33129;52.232;5.192;2022-10-04T15:50:17;21.30;99.90
47384;DHT22;33129;52.232;5.192;2022-10-04T16:23:30;20.70;99.90
47384;DHT22;33129;52.232;5.192;2022-10-04T16:26:01;20.90;99.90
47384;DHT22;33129;52.232;5.192;2022-10-04T16:28:46;20.90;99.90
47384;DHT22;33129;52.232;5.192;2022-10-04T16:31:45;20.80;99.90
47384;DHT22;33129;52.232;5.192;2022-10-04T16:56:24;20.40;99.90
47384;DHT22;33129;52.232;5.192;2022-10-04T17:01:29;20.60;99.90
47384;DHT22;33129;52.232;5.192;2022-10-04T17:04:15;20.40;99.90
47384;DHT22;33129;52.232;5.192;2022-10-04T17:12:56;20.20;99.90
47384;DHT22;33129;52.232;5.192;2022-10-04T17:18:44;20.20;99.90
47384;DHT22;33129;52.232;5.192;2022-10-04T17:21:51;20.30;99.90
47384;DHT22;33129;52.232;5.192;2022-10-04T17:25:06;20.10;99.90
47384;DHT22;33129;52.232;5.192;2022-10-04T17:27:52;20.10;99.90
47384;DHT22;33129;52.232;5.192;2022-10-04T17:30:23;20.30;99.90
47384;DHT22;33129;52.232;5.192;2022-10-04T17:33:01;20.20;99.90
47384;DHT22;33129;52.232;5.192;2022-10-04T17:44:35;20.20;99.90
47384;DHT22;33129;52.232;5.192;2022-10-04T17:47:37;20.20;99.90
47384;DHT22;33129;52.232;5.192;2022-10-04T17:53:35;20.10;99.90
47384;DHT22;33129;52.232;5.192;2022-10-04T17:59:24;20.00;99.90
47384;DHT22;33129;52.232;5.192;2022-10-04T18:02:09;20.10;99.90
47384;DHT22;33129;52.232;5.192;2022-10-04T18:05:31;20.00;99.90
47384;DHT22;33129;52.232;5.192;2022-10-04T18:08:33;20.00;99.90
47384;DHT22;33129;52.232;5.192;2022-10-04T18:17:05;20.10;99.90
47384;DHT22;33129;52.232;5.192;2022-10-04T18:19:41;19.80;99.90
47384;DHT22;33129;52.232;5.192;2022-10-04T18:22:17;19.90;99.90
47384;DHT22;33129;52.232;5.192;2022-10-04T18:24:47;19.40;99.90
47384;DHT22;33129;52.232;5.192;2022-10-04T18:27:21;19.90;99.90
47384;DHT22;33129;52.232;5.192;2022-10-04T18:30:15;19.80;99.90
47384;DHT22;33129;52.232;5.192;2022-10-04T18:32:49;19.70;99.90
47384;DHT22;33129;52.232;5.192;2022-10-04T18:35:26;19.80;99.90
47384;DHT22;33129;52.232;5.192;2022-10-04T18:40:39;19.90;99.90
47384;DHT22;33129;52.232;5.192;2022-10-04T18:43:29;19.60;99.90
47384;DHT22;33129;52.232;5.192;2022-10-04T18:46:36;19.80;99.90
47384;DHT22;33129;52.232;5.192;2022-10-04T18:49:16;19.70;99.90
47384;DHT22;33129;52.232;5.192;2022-10-04T18:54:47;19.80;99.90
47384;DHT22;33129;52.232;5.192;2022-10-04T18:57:41;19.70;99.90
47384;DHT22;33129;52.232;5.192;2022-10-04T19:00:37;19.80;99.90
47384;DHT22;33129;52.232;5.192;2022-10-04T19:03:28;19.30;99.90
47384;DHT22;33129;52.232;5.192;2022-10-04T19:06:38;19.70;99.90
47384;DHT22;33129;52.232;5.192;2022-10-04T19:09:21;19.20;99.90
47384;DHT22;33129;52.232;5.192;2022-10-04T19:14:36;19.20;99.90
47384;DHT22;33129;52.232;5.192;2022-10-04T19:20:12;19.80;99.90
47384;DHT22;33129;52.232;5.192;2022-10-04T19:25:44;19.70;99.90
47384;DHT22;33129;52.232;5.192;2022-10-04T19:28:29;19.70;99.90
47384;DHT22;33129;52.232;5.192;2022-10-04T19:34:13;19.50;99.90
47384;DHT22;33129;52.232;5.192;2022-10-04T19:36:50;20.00;99.90
47384;DHT22;33129;52.232;5.192;2022-10-04T19:42:14;19.90;99.90
47384;DHT22;33129;52.232;5.192;2022-10-04T19:47:56;19.50;99.90
47384;DHT22;33129;52.232;5.192;2022-10-04T19:50:41;19.50;99.90
47384;DHT22;33129;52.232;5.192;2022-10-04T19:53:25;19.70;99.90
47384;DHT22;33129;52.232;5.192;2022-10-04T19:55:57;19.40;1.00
47384;DHT22;33129;52.232;5.192;2022-10-04T20:00:59;19.50;1.00
47384;DHT22;33129;52.232;5.192;2022-10-04T20:03:26;18.90;1.00
47384;DHT22;33129;52.232;5.192;2022-10-04T20:05:53;19.30;1.00
47384;DHT22;33129;52.232;5.192;2022-10-04T20:11:21;19.40;1.00
47384;DHT22;33129;52.232;5.192;2022-10-04T20:21:47;19.00;1.00
47384;DHT22;33129;52.232;5.192;2022-10-04T20:27:01;18.90;1.00
47384;DHT22;33129;52.232;5.192;2022-10-04T20:32:09;18.90;1.00
47384;DHT22;33129;52.232;5.192;2022-10-04T20:37:12;19.10;1.00
47384;DHT22;33129;52.232;5.192;2022-10-04T20:42:34;19.00;1.00
47384;DHT22;33129;52.232;5.192;2022-10-04T20:53:14;18.90;1.00
47384;DHT22;33129;52.232;5.192;2022-10-04T20:55:46;19.10;1.00
47384;DHT22;33129;52.232;5.192;2022-10-04T21:01:05;18.80;1.00
47384;DHT22;33129;52.232;5.192;2022-10-04T21:04:27;18.90;1.00
47384;DHT22;33129;52.232;5.192;2022-10-04T21:07:11;18.60;1.00
47384;DHT22;33129;52.232;5.192;2022-10-04T21:09:43;18.80;1.00
47384;DHT22;33129;52.232;5.192;2022-10-04T21:18:02;18.70;1.00
47384;DHT22;33129;52.232;5.192;2022-10-04T21:23:32;18.70;1.00
47384;DHT22;33129;52.232;5.192;2022-10-04T21:26:22;18.60;1.00
47384;DHT22;33129;52.232;5.192;2022-10-04T21:28:55;18.90;1.00
47384;DHT22;33129;52.232;5.192;2022-10-04T21:31:23;18.40;1.00
47384;DHT22;33129;52.232;5.192;2022-10-04T21:33:51;18.50;1.00
47384;DHT22;33129;52.232;5.192;2022-10-04T21:36:17;18.40;1.00
47384;DHT22;33129;52.232;5.192;2022-10-04T21:38:42;18.80;1.00
47384;DHT22;33129;52.232;5.192;2022-10-04T21:41:09;18.40;1.00
47384;DHT22;33129;52.232;5.192;2022-10-04T21:43:35;18.70;1.00
47384;DHT22;33129;52.232;5.192;2022-10-04T21:46:01;18.80;1.00
47384;DHT22;33129;52.232;5.192;2022-10-04T21:48:45;18.10;1.00
47384;DHT22;33129;52.232;5.192;2022-10-04T21:54:52;18.40;1.00
47384;DHT22;33129;52.232;5.192;2022-10-04T21:57:19;18.40;1.00
47384;DHT22;33129;52.232;5.192;2022-10-04T21:59:47;18.40;1.00
47384;DHT22;33129;52.232;5.192;2022-10-04T22:02:13;18.50;1.00
47384;DHT22;33129;52.232;5.192;2022-10-04T22:04:39;18.40;1.00
47384;DHT22;33129;52.232;5.192;2022-10-04T22:07:06;18.10;1.00
47384;DHT22;33129;52.232;5.192;2022-10-04T22:09:32;17.90;1.00
47384;DHT22;33129;52.232;5.192;2022-10-04T22:11:59;18.60;1.00
47384;DHT22;33129;52.232;5.192;2022-10-04T22:14:25;18.50;1.00
47384;DHT22;33129;52.232;5.192;2022-10-04T22:16:50;18.70;1.00
47384;DHT22;33129;52.232;5.192;2022-10-04T22:19:16;18.60;1.00
47384;DHT22;33129;52.232;5.192;2022-10-04T22:21:42;18.40;1.00
47384;DHT22;33129;52.232;5.192;2022-10-04T22:24:17;18.30;1.00
47384;DHT22;33129;52.232;5.192;2022-10-04T22:26:44;18.50;1.00
47384;DHT22;33129;52.232;5.192;2022-10-04T22:29:15;18.40;1.00
47384;DHT22;33129;52.232;5.192;2022-10-04T22:31:45;18.50;1.00
47384;DHT22;33129;52.232;5.192;2022-10-04T22:34:16;18.50;1.00
47384;DHT22;33129;52.232;5.192;2022-10-04T22:36:43;18.30;1.00
47384;DHT22;33129;52.232;5.192;2022-10-04T22:39:15;18.70;1.00
47384;DHT22;33129;52.232;5.192;2022-10-04T22:41:45;18.30;1.00
47384;DHT22;33129;52.232;5.192;2022-10-04T22:44:18;18.10;1.00
47384;DHT22;33129;52.232;5.192;2022-10-04T22:46:48;18.40;1.00
47384;DHT22;33129;52.232;5.192;2022-10-04T22:49:20;18.60;1.00
47384;DHT22;33129;52.232;5.192;2022-10-04T22:51:48;18.40;1.00
47384;DHT22;33129;52.232;5.192;2022-10-04T22:54:20;18.60;1.00
47384;DHT22;33129;52.232;5.192;2022-10-04T22:56:47;18.20;1.00
47384;DHT22;33129;52.232;5.192;2022-10-04T22:59:16;18.40;1.00
47384;DHT22;33129;52.232;5.192;2022-10-04T23:01:44;18.20;1.00
47384;DHT22;33129;52.232;5.192;2022-10-04T23:04:19;18.40;1.00
47384;DHT22;33129;52.232;5.192;2022-10-04T23:06:47;18.30;1.00
47384;DHT22;33129;52.232;5.192;2022-10-04T23:09:13;18.30;1.00
47384;DHT22;33129;52.232;5.192;2022-10-04T23:11:39;18.40;1.00
47384;DHT22;33129;52.232;5.192;2022-10-04T23:14:04;18.50;1.00
47384;DHT22;33129;52.232;5.192;2022-10-04T23:16:30;18.40;1.00
47384;DHT22;33129;52.232;5.192;2022-10-04T23:19:11;18.40;1.00
47384;DHT22;33129;52.232;5.192;2022-10-04T23:21:44;18.20;1.00
47384;DHT22;33129;52.232;5.192;2022-10-04T23:24:19;18.10;1.00
47384;DHT22;33129;52.232;5.192;2022-10-04T23:26:48;18.20;1.00
47384;DHT22;33129;52.232;5.192;2022-10-04T23:29:23;18.40;1.00
47384;DHT22;33129;52.232;5.192;2022-10-04T23:31:50;18.30;1.00
47384;DHT22;33129;52.232;5.192;2022-10-04T23:34:47;18.40;1.00
47384;DHT22;33129;52.232;5.192;2022-10-04T23:37:19;18.40;1.00
47384;DHT22;33129;52.232;5.192;2022-10-04T23:39:46;18.20;1.00
47384;DHT22;33129;52.232;5.192;2022-10-04T23:42:25;18.10;1.00
47384;DHT22;33129;52.232;5.192;2022-10-04T23:44:56;18.00;1.00
47384;DHT22;33129;52.232;5.192;2022-10-04T23:47:26;18.30;1.00
47384;DHT22;33129;52.232;5.192;2022-10-04T23:49:56;17.80;1.00
47384;DHT22;33129;52.232;5.192;2022-10-04T23:52:35;18.00;1.00
47384;DHT22;33129;52.232;5.192;2022-10-04T23:55:13;17.80;1.00
47384;DHT22;33129;52.232;5.192;2022-10-04T23:57:40;18.00;1.00
